Time;durP1;ratioP1;P1;durP2;ratioP2;P2;SDS_P1;SDS_P2;PMS_P1;PMS_P2;Temp;Humidity;BMP_temperature;BMP_pressure;BME280_temperature;BME280_humidity;BME280_pressure;Samples;Min_cycle;Max_cycle;Signal;HPM_P1;HPM_P2
2022/08/29 00:00:34;;;;;;;4.13;1.70;;;16.40;99.90;;;;;;5072942;28;20059;-50
2022/08/29 00:03:00;;;;;;;4.65;1.60;;;16.30;99.90;;;;;;5072946;28;20371;-48
2022/08/29 00:05:30;;;;;;;5.13;1.85;;;16.30;99.90;;;;;;5072077;28;20078;-50
2022/08/29 00:07:57;;;;;;;4.20;1.48;;;16.30;99.90;;;;;;5072981;28;20037;-50
2022/08/29 00:10:22;;;;;;;4.65;1.83;;;16.30;99.90;;;;;;5072228;28;20095;-49
2022/08/29 00:12:48;;;;;;;4.07;1.50;;;16.20;99.90;;;;;;5072547;28;20060;-48
2022/08/29 00:15:14;;;;;;;8.60;2.00;;;16.20;99.90;;;;;;5072729;28;20017;-49
2022/08/29 00:17:41;;;;;;;4.57;1.65;;;16.20;99.90;;;;;;5072697;28;20040;-49
2022/08/29 00:20:08;;;;;;;4.30;1.52;;;16.20;99.90;;;;;;5072526;28;20126;-51
2022/08/29 00:22:33;;;;;;;3.83;1.45;;;16.20;99.90;;;;;;5072796;28;20032;-52
2022/08/29 00:25:03;;;;;;;3.55;1.60;;;16.20;99.90;;;;;;5072651;28;20028;-51
2022/08/29 00:27:29;;;;;;;;;;;16.20;99.90;;;;;;5072994;28;20069;-54
2022/08/29 00:29:55;;;;;;;3.15;1.42;;;16.20;99.90;;;;;;5072825;28;19935;-47
2022/08/29 00:32:21;;;;;;;13.40;6.80;;;16.20;99.90;;;;;;5065683;28;20059;-48
2022/08/29 00:34:46;;;;;;;3.85;1.70;;;16.20;99.90;;;;;;5065797;28;20431;-50
2022/08/29 00:37:12;;;;;;;5.22;1.92;;;16.20;99.90;;;;;;5071549;28;20035;-47
2022/08/29 00:39:38;;;;;;;5.55;2.10;;;16.10;99.90;;;;;;5072405;28;20024;-48
2022/08/29 00:42:04;;;;;;;3.88;1.65;;;16.10;99.90;;;;;;5064886;28;20013;-53
2022/08/29 00:44:30;;;;;;;4.88;1.67;;;16.10;99.90;;;;;;5065743;28;20392;-48
2022/08/29 00:47:01;;;;;;;4.40;1.70;;;16.10;99.90;;;;;;5071818;28;20023;-50
2022/08/29 00:49:29;;;;;;;4.68;1.60;;;16.10;99.90;;;;;;5066551;28;20115;-47
2022/08/29 00:51:57;;;;;;;3.15;1.40;;;16.10;99.90;;;;;;5069867;28;20163;-48
2022/08/29 00:54:24;;;;;;;2.70;1.73;;;16.10;99.90;;;;;;5071381;28;20033;-46
2022/08/29 00:56:51;;;;;;;4.70;1.50;;;16.00;99.90;;;;;;5068857;28;20063;-50
2022/08/29 00:59:23;;;;;;;3.05;1.65;;;16.00;99.90;;;;;;5071428;28;20036;-47
2022/08/29 01:01:48;;;;;;;4.68;1.67;;;16.00;99.90;;;;;;5068864;28;20031;-47
2022/08/29 01:04:15;;;;;;;3.72;1.67;;;16.00;99.90;;;;;;5071307;28;20074;-48
2022/08/29 01:06:41;;;;;;;4.95;1.75;;;16.00;99.90;;;;;;5071461;28;20032;-46
2022/08/29 01:09:08;;;;;;;3.60;1.63;;;16.00;99.90;;;;;;5071287;28;20025;-50
2022/08/29 01:14:21;;;;;;;5.72;1.77;;;16.00;99.90;;;;;;5062780;28;20044;-53
2022/08/29 01:16:51;;;;;;;7.65;2.00;;;16.00;99.90;;;;;;5071471;28;20029;-46
2022/08/29 01:19:37;;;;;;;3.25;2.03;;;16.00;99.90;;;;;;5072063;28;20031;-47
2022/08/29 01:22:19;;;;;;;3.75;1.40;;;15.90;99.90;;;;;;5069350;28;20024;-50
2022/08/29 01:24:49;;;;;;;4.22;1.40;;;15.90;99.90;;;;;;5071492;28;20330;-47
2022/08/29 01:27:19;;;;;;;4.57;1.58;;;15.90;99.90;;;;;;5071029;28;20490;-49
2022/08/29 01:29:45;;;;;;;2.83;1.35;;;15.90;99.90;;;;;;5070317;28;20036;-50
2022/08/29 01:32:11;;;;;;;4.63;1.70;;;15.90;99.90;;;;;;5071363;28;20631;-51
2022/08/29 01:34:38;;;;;;;5.00;1.85;;;15.90;99.90;;;;;;5071433;28;20511;-47
2022/08/29 01:37:05;;;;;;;4.55;1.88;;;15.90;99.90;;;;;;5071181;28;20485;-49
2022/08/29 01:39:35;;;;;;;4.85;1.70;;;15.80;99.90;;;;;;5064163;28;20058;-48
2022/08/29 01:42:06;;;;;;;4.85;1.63;;;15.80;99.90;;;;;;5070808;28;20033;-48
2022/08/29 01:44:32;;;;;;;4.40;1.63;;;15.70;99.90;;;;;;5057875;28;20074;-49
2022/08/29 01:46:59;;;;;;;3.28;1.52;;;15.70;99.90;;;;;;5071209;28;20022;-47
2022/08/29 01:49:26;;;;;;;5.43;1.60;;;15.60;99.90;;;;;;5070886;28;20037;-48
2022/08/29 01:51:52;;;;;;;4.30;1.52;;;15.60;99.90;;;;;;5071100;28;20497;-48
2022/08/29 01:54:18;;;;;;;5.88;1.60;;;15.60;99.90;;;;;;5071346;28;20060;-48
2022/08/29 01:56:47;;;;;;;4.40;1.60;;;15.60;99.90;;;;;;5070989;28;20025;-50
2022/08/29 01:59:16;;;;;;;3.83;1.42;;;15.60;99.90;;;;;;5071209;28;20032;-49
2022/08/29 02:01:53;;;;;;;3.30;1.50;;;15.60;99.90;;;;;;5070924;28;20079;-49
2022/08/29 02:04:19;;;;;;;6.47;1.70;;;15.60;99.90;;;;;;5070504;28;20847;-48
2022/08/29 02:06:45;;;;;;;3.38;1.30;;;15.60;99.90;;;;;;5070320;28;20033;-48
2022/08/29 02:09:11;;;;;;;4.75;1.75;;;15.60;99.90;;;;;;5071080;28;20094;-47
2022/08/29 02:11:38;;;;;;;3.88;1.40;;;15.60;99.90;;;;;;5071024;28;20043;-47
2022/08/29 02:14:05;;;;;;;4.28;1.75;;;15.60;99.90;;;;;;5070697;28;20475;-48
2022/08/29 02:16:31;;;;;;;4.40;1.77;;;15.60;99.90;;;;;;5070648;28;20028;-47
2022/08/29 02:18:57;;;;;;;4.60;1.67;;;15.60;99.90;;;;;;5071028;28;20083;-47
2022/08/29 02:21:24;;;;;;;5.32;1.70;;;15.60;99.90;;;;;;5070907;28;20476;-47
2022/08/29 02:23:51;;;;;;;3.38;1.45;;;15.60;99.90;;;;;;5070664;28;20113;-47
2022/08/29 02:26:18;;;;;;;6.03;1.80;;;15.70;99.90;;;;;;5070794;28;20143;-53
2022/08/29 02:28:44;;;;;;;4.30;1.75;;;15.70;99.90;;;;;;5070881;28;20055;-56
2022/08/29 02:31:10;;;;;;;4.60;1.45;;;15.70;99.90;;;;;;5070693;28;20161;-52
2022/08/29 02:33:36;;;;;;;7.15;1.60;;;15.70;99.90;;;;;;5070679;28;20024;-47
2022/08/29 02:36:04;;;;;;;6.45;1.67;;;15.70;99.90;;;;;;5074196;28;20029;-49
2022/08/29 02:38:30;;;;;;;5.65;1.88;;;15.80;99.90;;;;;;5074696;28;20111;-48
2022/08/29 02:40:56;;;;;;;4.43;1.63;;;15.80;99.90;;;;;;5069595;28;20111;-46
2022/08/29 02:43:23;;;;;;;5.35;1.58;;;15.80;99.90;;;;;;5074609;28;20031;-54
2022/08/29 02:45:49;;;;;;;6.72;2.00;;;15.80;99.90;;;;;;5074497;28;20123;-51
2022/08/29 02:48:14;;;;;;;5.35;1.80;;;15.80;99.90;;;;;;5074478;28;20103;-47
2022/08/29 02:50:42;;;;;;;3.15;1.73;;;15.80;99.90;;;;;;5074341;28;20418;-48
2022/08/29 02:53:08;;;;;;;2.50;1.30;;;15.80;99.90;;;;;;5074603;28;20414;-49
2022/08/29 02:55:34;;;;;;;3.80;1.70;;;15.80;99.90;;;;;;5074266;28;20033;-51
2022/08/29 02:58:00;;;;;;;6.55;1.80;;;15.90;99.90;;;;;;5074223;28;20036;-48
2022/08/29 03:00:27;;;;;;;6.88;2.42;;;15.80;99.90;;;;;;5074348;28;20032;-49
2022/08/29 03:02:54;;;;;;;6.75;1.88;;;15.80;99.90;;;;;;5073939;28;20041;-48
2022/08/29 03:05:23;;;;;;;3.00;1.55;;;15.90;99.90;;;;;;5073900;28;20472;-49
2022/08/29 03:07:51;;;;;;;2.78;1.50;;;15.90;99.90;;;;;;5074329;28;20028;-55
2022/08/29 03:10:17;;;;;;;4.30;1.58;;;15.80;99.90;;;;;;5073851;28;20029;-47
2022/08/29 03:12:43;;;;;;;3.67;1.60;;;15.80;99.90;;;;;;5073708;28;20471;-50
2022/08/29 03:15:09;;;;;;;3.97;1.55;;;15.80;99.90;;;;;;5069748;28;20476;-48
2022/08/29 03:17:35;;;;;;;4.80;2.13;;;15.80;99.90;;;;;;5074198;28;20036;-48
2022/08/29 03:20:01;;;;;;;3.35;1.55;;;15.90;99.90;;;;;;5074170;28;20395;-47
2022/08/29 03:22:27;;;;;;;3.90;1.60;;;15.80;99.90;;;;;;5073893;28;20035;-50
2022/08/29 03:24:53;;;;;;;6.03;1.67;;;15.80;99.90;;;;;;5073940;28;20031;-52
2022/08/29 03:27:21;;;;;;;3.58;1.50;;;15.90;99.90;;;;;;5073603;28;20437;-49
2022/08/29 03:29:47;;;;;;;4.88;1.63;;;15.80;99.90;;;;;;5074022;28;20210;-49
2022/08/29 03:32:13;;;;;;;2.78;1.65;;;15.80;99.90;;;;;;5073488;28;20425;-49
2022/08/29 03:34:39;;;;;;;4.93;1.80;;;15.80;99.90;;;;;;5073621;28;20112;-56
2022/08/29 03:37:04;;;;;;;6.63;1.77;;;15.90;99.90;;;;;;5073589;28;20128;-47
2022/08/29 03:39:30;;;;;;;5.28;2.00;;;15.80;99.90;;;;;;5073632;28;20739;-52
2022/08/29 03:41:56;;;;;;;4.30;1.55;;;15.70;99.90;;;;;;5073463;28;20016;-52
2022/08/29 03:44:22;;;;;;;3.40;1.60;;;15.80;99.90;;;;;;5073035;28;20098;-47
2022/08/29 03:46:48;;;;;;;3.47;1.77;;;15.70;99.90;;;;;;5072872;28;20051;-47
2022/08/29 03:49:14;;;;;;;3.05;1.50;;;15.60;99.90;;;;;;5073380;28;20076;-48
2022/08/29 03:51:40;;;;;;;3.90;1.33;;;15.60;99.90;;;;;;5073361;28;20028;-52
2022/08/29 03:54:07;;;;;;;3.00;2.00;;;15.60;99.90;;;;;;5073146;28;20020;-47
2022/08/29 03:56:32;;;;;;;5.55;1.80;;;15.60;99.90;;;;;;5073464;28;20024;-52
2022/08/29 03:58:58;;;;;;;4.40;1.80;;;15.50;99.90;;;;;;5073274;28;20030;-48
2022/08/29 04:01:27;;;;;;;5.07;1.77;;;15.50;99.90;;;;;;5073100;28;20123;-48
2022/08/29 04:03:55;;;;;;;4.72;1.92;;;15.50;99.90;;;;;;5073329;28;20119;-51
2022/08/29 04:06:21;;;;;;;4.55;2.00;;;15.50;99.90;;;;;;5073224;28;20082;-50
2022/08/29 04:08:48;;;;;;;6.07;1.60;;;15.40;99.90;;;;;;5072879;28;20486;-47
2022/08/29 04:11:15;;;;;;;3.45;1.60;;;15.40;99.90;;;;;;5073153;28;20035;-47
2022/08/29 04:13:40;;;;;;;4.28;1.80;;;15.40;99.90;;;;;;5072991;28;20027;-47
2022/08/29 04:16:15;;;;;;;6.20;2.10;;;15.40;99.90;;;;;;5073040;28;20016;-48
2022/08/29 04:18:41;;;;;;;2.85;1.60;;;15.30;99.90;;;;;;5072820;28;20140;-49
2022/08/29 04:21:07;;;;;;;4.18;1.60;;;15.30;99.90;;;;;;5072899;28;20020;-49
2022/08/29 04:23:33;;;;;;;3.60;1.70;;;15.20;99.90;;;;;;5072501;28;20113;-48
2022/08/29 04:25:59;;;;;;;4.85;1.77;;;15.20;99.90;;;;;;5072442;28;20548;-50
2022/08/29 04:28:27;;;;;;;6.10;1.98;;;15.10;99.90;;;;;;5072776;28;20071;-47
2022/08/29 04:30:53;;;;;;;3.45;1.85;;;15.10;99.90;;;;;;5072773;28;20081;-47
2022/08/29 04:33:20;;;;;;;3.00;1.65;;;15.20;99.90;;;;;;5072530;28;20090;-53
2022/08/29 04:35:47;;;;;;;2.65;1.42;;;15.20;99.90;;;;;;5072379;28;20024;-50
2022/08/29 04:38:13;;;;;;;4.90;1.92;;;15.20;99.90;;;;;;5072356;28;20028;-48
2022/08/29 04:40:41;;;;;;;6.43;1.88;;;15.10;99.90;;;;;;5072268;28;20112;-47
2022/08/29 04:43:07;;;;;;;4.10;1.85;;;15.20;99.90;;;;;;5072440;28;20124;-47
2022/08/29 04:45:34;;;;;;;4.57;1.80;;;15.20;99.90;;;;;;5072443;28;20017;-48
2022/08/29 04:48:01;;;;;;;4.40;1.77;;;15.20;99.90;;;;;;5072316;28;20419;-49
2022/08/29 04:50:27;;;;;;;3.15;1.42;;;15.10;99.90;;;;;;5072140;28;20051;-54
2022/08/29 04:52:53;;;;;;;6.47;2.00;;;15.10;99.90;;;;;;5072034;28;20021;-49
2022/08/29 04:55:21;;;;;;;4.68;1.70;;;15.10;99.90;;;;;;5071860;28;20036;-47
2022/08/29 04:57:47;;;;;;;2.90;1.65;;;15.00;99.90;;;;;;5071181;28;20040;-48
2022/08/29 05:00:17;;;;;;;3.92;1.70;;;15.00;99.90;;;;;;5072215;28;20033;-53
2022/08/29 05:02:43;;;;;;;5.78;1.70;;;15.00;99.90;;;;;;5071790;28;20036;-51
2022/08/29 05:05:12;;;;;;;3.63;1.75;;;14.90;99.90;;;;;;5071854;28;20024;-52
2022/08/29 05:07:38;;;;;;;6.43;1.80;;;14.90;99.90;;;;;;5071961;28;20029;-55
2022/08/29 05:10:08;;;;;;;4.13;1.83;;;14.90;99.90;;;;;;5071863;28;20078;-46
2022/08/29 05:12:35;;;;;;;4.28;1.90;;;14.90;99.90;;;;;;5071840;28;20498;-47
2022/08/29 05:15:01;;;;;;;3.35;1.55;;;14.90;99.90;;;;;;5071506;28;20032;-47
2022/08/29 05:17:27;;;;;;;4.20;1.65;;;14.90;99.90;;;;;;5071767;28;20032;-52
2022/08/29 05:19:53;;;;;;;3.97;1.80;;;14.90;99.90;;;;;;5071805;28;20032;-51
2022/08/29 05:22:19;;;;;;;3.95;1.73;;;14.90;99.90;;;;;;5071519;28;20056;-48
2022/08/29 05:24:46;;;;;;;6.35;1.88;;;14.90;99.90;;;;;;5071712;28;20081;-48
2022/08/29 05:27:15;;;;;;;4.60;1.80;;;14.90;99.90;;;;;;5071679;28;20025;-54
2022/08/29 05:29:44;;;;;;;3.55;1.80;;;15.00;99.90;;;;;;5071509;28;20035;-52
2022/08/29 05:32:11;;;;;;;5.03;2.00;;;15.00;99.90;;;;;;5070982;28;20024;-47
2022/08/29 05:34:37;;;;;;;4.28;1.80;;;15.00;99.90;;;;;;5071455;28;20029;-49
2022/08/29 05:37:07;;;;;;;7.75;2.17;;;15.00;99.90;;;;;;5071392;28;20048;-48
2022/08/29 05:39:35;;;;;;;6.03;2.50;;;15.00;99.90;;;;;;5057925;28;20435;-47
2022/08/29 05:42:01;;;;;;;5.22;2.10;;;15.10;99.90;;;;;;5071287;28;20487;-47
2022/08/29 05:44:28;;;;;;;4.53;2.30;;;15.10;99.90;;;;;;5071004;28;20483;-50
2022/08/29 05:46:54;;;;;;;5.43;1.90;;;15.10;99.90;;;;;;5071224;28;20024;-46
2022/08/29 05:49:20;;;;;;;7.07;2.10;;;15.20;99.90;;;;;;5071339;28;20040;-51
2022/08/29 05:51:46;;;;;;;6.22;2.45;;;15.20;99.90;;;;;;5071147;28;20384;-47
2022/08/29 05:54:12;;;;;;;6.10;2.00;;;15.20;99.90;;;;;;5071222;28;20050;-49
2022/08/29 05:56:38;;;;;;;7.07;2.17;;;15.30;99.90;;;;;;5070723;28;20028;-53
2022/08/29 05:59:04;;;;;;;3.53;2.20;;;15.40;99.90;;;;;;5071100;28;20017;-56
2022/08/29 06:01:32;;;;;;;4.57;2.13;;;15.40;99.90;;;;;;5070993;28;20155;-51
2022/08/29 06:03:59;;;;;;;7.20;2.13;;;15.40;99.90;;;;;;5071328;28;20036;-52
2022/08/29 06:06:27;;;;;;;8.77;2.67;;;15.50;99.90;;;;;;5071117;28;20066;-51
2022/08/29 06:08:54;;;;;;;4.03;1.90;;;15.50;99.90;;;;;;5056890;28;20024;-55
2022/08/29 06:11:23;;;;;;;7.13;2.75;;;15.50;99.90;;;;;;5070875;28;20028;-52
2022/08/29 06:13:49;;;;;;;5.18;1.98;;;15.60;99.90;;;;;;5070741;28;20032;-50
2022/08/29 06:16:17;;;;;;;7.13;2.33;;;15.70;99.90;;;;;;5071057;28;20024;-52
2022/08/29 06:18:43;;;;;;;5.80;2.20;;;15.70;99.90;;;;;;5070825;28;20028;-46
2022/08/29 06:21:10;;;;;;;4.03;2.13;;;15.80;99.90;;;;;;5070570;28;20479;-51
2022/08/29 06:23:36;;;;;;;4.53;2.00;;;15.90;99.90;;;;;;5070630;28;20062;-51
2022/08/29 06:26:03;;;;;;;4.53;2.00;;;15.90;99.90;;;;;;5070898;28;20108;-48
2022/08/29 06:28:30;;;;;;;4.30;1.95;;;16.00;99.90;;;;;;5070420;28;20078;-46
2022/08/29 06:31:03;;;;;;;7.03;1.92;;;16.10;99.90;;;;;;5070450;28;20426;-49
2022/08/29 06:33:29;;;;;;;2.92;1.70;;;16.30;99.90;;;;;;5070892;28;20017;-52
2022/08/29 06:35:54;;;;;;;4.03;1.70;;;16.80;99.90;;;;;;5070681;28;20098;-49
2022/08/29 06:38:20;;;;;;;4.40;1.90;;;17.80;99.90;;;;;;5070768;28;20426;-51
2022/08/29 06:40:46;;;;;;;7.40;1.65;;;18.90;99.90;;;;;;5069336;28;20146;-48
2022/08/29 06:43:11;;;;;;;3.00;1.50;;;19.70;99.90;;;;;;5070191;28;20025;-55
2022/08/29 06:45:41;;;;;;;4.90;1.70;;;20.30;99.90;;;;;;5070191;28;20024;-48
2022/08/29 06:48:07;;;;;;;2.55;1.20;;;21.00;99.90;;;;;;5070579;28;20027;-48
2022/08/29 06:50:37;;;;;;;3.40;1.73;;;21.50;99.90;;;;;;5070434;28;20044;-48
2022/08/29 06:53:04;;;;;;;4.15;1.40;;;21.40;99.90;;;;;;5070536;28;20085;-48
2022/08/29 06:55:30;;;;;;;4.72;1.60;;;21.00;99.90;;;;;;5070451;28;20099;-50
2022/08/29 06:57:56;;;;;;;2.35;1.15;;;20.60;99.90;;;;;;5070447;28;20388;-49
2022/08/29 07:00:22;;;;;;;3.45;1.30;;;20.40;99.90;;;;;;5070750;28;20047;-47
2022/08/29 07:02:52;;;;;;;6.35;1.50;;;20.70;99.90;;;;;;5068952;28;20024;-51
2022/08/29 07:05:18;;;;;;;3.55;1.30;;;21.50;99.90;;;;;;5070396;28;20115;-50
2022/08/29 07:07:44;;;;;;;2.88;1.42;;;22.20;99.90;;;;;;5070380;28;20032;-49
2022/08/29 07:10:11;;;;;;;3.65;1.23;;;23.00;99.30;;;;;;5070187;28;20031;-48
2022/08/29 07:12:38;;;;;;;4.28;1.15;;;23.60;96.90;;;;;;5069040;28;20066;-47
2022/08/29 07:15:04;;;;;;;3.05;1.20;;;24.00;97.10;;;;;;5068980;28;20368;-48
2022/08/29 07:17:30;;;;;;;4.10;1.25;;;24.70;95.40;;;;;;5070391;28;20043;-47
2022/08/29 07:19:56;;;;;;;2.60;1.17;;;25.30;94.30;;;;;;5070123;28;20380;-49
2022/08/29 07:22:21;;;;;;;2.80;1.10;;;26.00;93.10;;;;;;5073475;28;20514;-49
2022/08/29 07:24:47;;;;;;;3.95;1.10;;;26.50;92.30;;;;;;5065495;28;20116;-53
2022/08/29 07:27:13;;;;;;;3.72;1.25;;;26.40;91.80;;;;;;5070429;28;20035;-48
2022/08/29 07:29:40;;;;;;;3.72;1.55;;;27.30;92.10;;;;;;5062936;28;20021;-49
2022/08/29 07:32:06;;;;;;;2.08;0.98;;;27.80;90.40;;;;;;5073730;28;20051;-50
2022/08/29 07:34:32;;;;;;;2.72;1.10;;;27.90;90.00;;;;;;5073439;28;20506;-48
2022/08/29 07:36:58;;;;;;;3.05;0.93;;;28.50;86.80;;;;;;5073725;28;20029;-48
2022/08/29 07:39:24;;;;;;;2.05;1.00;;;28.80;85.80;;;;;;5073566;28;20036;-54
2022/08/29 07:41:50;;;;;;;2.70;0.90;;;28.10;84.70;;;;;;5073567;28;20031;-52
2022/08/29 07:44:17;;;;;;;3.13;1.05;;;28.30;86.10;;;;;;5073066;28;20029;-53
2022/08/29 07:46:43;;;;;;;3.15;0.88;;;28.30;84.70;;;;;;5073428;28;20032;-48
2022/08/29 07:49:11;;;;;;;2.38;0.93;;;29.10;86.30;;;;;;5073419;28;20044;-52
2022/08/29 07:51:37;;;;;;;2.38;0.98;;;29.60;82.30;;;;;;5073374;28;20021;-55
2022/08/29 07:54:05;;;;;;;6.97;1.27;;;29.70;81.10;;;;;;5070334;28;20547;-50
2022/08/29 07:56:33;;;;;;;3.00;1.30;;;30.00;81.60;;;;;;5066755;28;20028;-50
2022/08/29 07:58:59;;;;;;;3.20;1.17;;;30.40;78.80;;;;;;5072237;28;20052;-54
2022/08/29 08:01:25;;;;;;;3.22;1.20;;;30.00;76.60;;;;;;5072243;28;20048;-50
2022/08/29 08:03:52;;;;;;;3.13;1.40;;;29.80;76.30;;;;;;5070037;28;20028;-51
2022/08/29 08:06:20;;;;;;;2.25;0.98;;;30.00;78.10;;;;;;5072281;28;20035;-53
2022/08/29 08:08:47;;;;;;;3.72;1.05;;;29.60;76.90;;;;;;5072479;28;20532;-48
2022/08/29 08:11:13;;;;;;;3.45;1.40;;;29.70;74.70;;;;;;5072596;28;20040;-49
2022/08/29 08:13:39;;;;;;;3.03;1.45;;;29.60;75.80;;;;;;5072384;28;20333;-49
2022/08/29 08:16:08;;;;;;;5.22;1.23;;;29.80;76.70;;;;;;5072728;28;20456;-51
2022/08/29 08:18:35;;;;;;;3.92;1.40;;;29.80;74.80;;;;;;5072573;28;20031;-48
2022/08/29 08:21:01;;;;;;;3.42;1.30;;;28.60;76.60;;;;;;5072777;28;20047;-50
2022/08/29 08:23:27;;;;;;;2.53;1.20;;;28.10;78.50;;;;;;5072673;28;20020;-49
2022/08/29 08:25:53;;;;;;;3.58;1.52;;;27.20;81.60;;;;;;5072754;28;20081;-49
2022/08/29 08:28:18;;;;;;;3.15;1.00;;;26.80;80.40;;;;;;5068474;28;20379;-55
2022/08/29 08:30:44;;;;;;;4.28;1.50;;;26.10;84.30;;;;;;5072704;28;20559;-50
2022/08/29 08:33:10;;;;;;;2.80;1.30;;;26.00;84.50;;;;;;5071132;28;20100;-53
2022/08/29 08:35:37;;;;;;;5.53;1.23;;;25.40;85.60;;;;;;5072172;28;20697;-52
2022/08/29 08:38:05;;;;;;;5.85;1.27;;;25.50;90.20;;;;;;5072981;28;20353;-50
2022/08/29 08:40:31;;;;;;;3.78;1.25;;;26.00;87.50;;;;;;5072346;28;20021;-52
2022/08/29 08:43:00;;;;;;;3.13;1.23;;;25.70;86.70;;;;;;5071972;28;20068;-48
2022/08/29 08:45:36;;;;;;;4.50;1.45;;;25.00;88.30;;;;;;5072443;28;20400;-47
2022/08/29 08:48:19;;;;;;;3.75;1.00;;;24.80;90.40;;;;;;5071768;28;20044;-49
2022/08/29 08:51:03;;;;;;;3.13;1.17;;;24.30;90.60;;;;;;5071726;28;20032;-50
2022/08/29 08:53:34;;;;;;;4.00;1.42;;;23.80;91.70;;;;;;5072018;28;20108;-47
2022/08/29 08:56:10;;;;;;;4.07;1.27;;;23.10;92.90;;;;;;5072260;28;20020;-53
2022/08/29 08:58:59;;;;;;;5.05;1.55;;;23.50;94.50;;;;;;5071902;28;20048;-50
2022/08/29 09:01:28;;;;;;;2.28;1.13;;;25.60;93.40;;;;;;5070076;28;20020;-50
2022/08/29 09:04:19;;;;;;;2.00;1.00;;;27.80;91.30;;;;;;5069768;28;20044;-48
2022/08/29 09:06:54;;;;;;;2.92;1.17;;;28.70;83.20;;;;;;5069929;28;20593;-49
2022/08/29 09:09:25;;;;;;;4.97;1.45;;;27.50;82.10;;;;;;5069780;28;20028;-53
2022/08/29 09:12:03;;;;;;;3.28;1.30;;;26.80;87.40;;;;;;5069394;28;20379;-53
2022/08/29 09:14:53;;;;;;;3.78;1.00;;;27.30;85.20;;;;;;5069566;28;20228;-47
2022/08/29 09:17:47;;;;;;;5.55;1.40;;;28.20;85.00;;;;;;5069810;28;20059;-48
2022/08/29 09:20:23;;;;;;;3.95;1.20;;;29.00;78.70;;;;;;5065363;28;20491;-49
2022/08/29 09:23:01;;;;;;;3.53;1.00;;;27.80;79.70;;;;;;5066627;28;20028;-48
2022/08/29 09:25:29;;;;;;;2.85;1.33;;;27.20;82.50;;;;;;5069259;28;20024;-47
2022/08/29 09:27:57;;;;;;;1.90;1.30;;;26.70;83.50;;;;;;5071528;28;20028;-47
2022/08/29 09:30:27;;;;;;;2.60;1.17;;;26.00;85.60;;;;;;5068882;28;20078;-44
2022/08/29 09:32:53;;;;;;;5.50;1.40;;;25.20;88.10;;;;;;5069448;28;20052;-46
2022/08/29 09:35:23;;;;;;;3.13;1.30;;;26.20;91.20;;;;;;5069234;28;20052;-47
2022/08/29 09:38:04;;;;;;;4.93;1.73;;;27.40;87.50;;;;;;5068077;28;20028;-55
2022/08/29 09:40:47;;;;;;;6.43;1.80;;;27.70;80.60;;;;;;5068937;28;20158;-50
2022/08/29 09:43:22;;;;;;;3.88;1.63;;;28.10;81.70;;;;;;5069016;28;20036;-47
2022/08/29 09:46:10;;;;;;;4.70;1.70;;;28.60;80.70;;;;;;5068213;28;20025;-51
2022/08/29 09:48:49;;;;;;;4.32;1.42;;;28.60;75.00;;;;;;5069568;28;20021;-49
2022/08/29 09:51:23;;;;;;;5.65;1.50;;;29.00;79.20;;;;;;5064404;28;20040;-48
2022/08/29 09:53:50;;;;;;;3.08;1.20;;;29.70;76.70;;;;;;5070139;28;20021;-50
2022/08/29 09:56:22;;;;;;;2.75;1.40;;;30.00;73.60;;;;;;5069937;28;20074;-52
2022/08/29 09:58:59;;;;;;;2.95;1.42;;;30.20;75.90;;;;;;5069379;28;20020;-47
2022/08/29 10:01:25;;;;;;;5.45;1.50;;;30.20;71.30;;;;;;5069288;28;20388;-49
2022/08/29 10:03:59;;;;;;;5.00;1.90;;;29.90;72.10;;;;;;5069558;28;20033;-47
2022/08/29 10:06:31;;;;;;;5.65;1.63;;;28.50;70.50;;;;;;5066353;28;20020;-46
2022/08/29 10:09:06;;;;;;;3.75;1.55;;;28.20;74.30;;;;;;5070895;28;20056;-49
2022/08/29 10:12:06;;;;;;;2.95;1.33;;;27.80;73.90;;;;;;5071690;28;20020;-54
2022/08/29 10:14:53;;;;;;;2.80;1.40;;;27.50;75.20;;;;;;5063890;28;21122;-55
2022/08/29 10:20:45;;;;;;;3.63;1.50;;;27.90;72.50;;;;;;5067726;28;20039;-52
2022/08/29 10:23:39;;;;;;;3.97;1.42;;;27.70;75.60;;;;;;5066862;28;20036;-50
2022/08/29 10:26:19;;;;;;;3.88;1.20;;;28.40;75.30;;;;;;5063031;28;20021;-50
2022/08/29 10:29:08;;;;;;;5.13;1.40;;;29.00;72.80;;;;;;5068998;28;20078;-48
2022/08/29 10:32:00;;;;;;;;;;;29.60;70.40;;;;;;5064928;28;20036;-51
2022/08/29 10:35:02;;;;;;;2.72;1.27;;;29.10;68.70;;;;;;5050039;28;19908;-50
2022/08/29 10:37:32;;;;;;;4.32;1.50;;;28.20;69.60;;;;;;5066453;28;20488;-53
2022/08/29 10:40:13;;;;;;;3.83;1.55;;;27.60;70.00;;;;;;5069286;28;20471;-48
2022/08/29 10:42:41;;;;;;;4.03;1.70;;;26.80;72.50;;;;;;5065025;28;20488;-52
2022/08/29 10:45:13;;;;;;;3.35;1.30;;;26.10;75.70;;;;;;5060680;28;20094;-49
2022/08/29 10:47:49;;;;;;;3.08;1.40;;;25.80;76.50;;;;;;5061173;28;20023;-51
2022/08/29 10:50:29;;;;;;;3.58;1.40;;;26.60;79.60;;;;;;5062609;28;20056;-53
2022/08/29 10:53:10;;;;;;;4.55;1.40;;;27.20;74.60;;;;;;5064745;28;20545;-50
2022/08/29 10:55:52;;;;;;;4.72;1.50;;;27.50;73.50;;;;;;5069687;28;20074;-48
2022/08/29 10:58:50;;;;;;;3.08;1.33;;;27.50;72.70;;;;;;5071763;28;20074;-49
2022/08/29 11:01:20;;;;;;;3.28;1.25;;;28.30;73.10;;;;;;5074709;28;20052;-51
2022/08/29 11:03:46;;;;;;;1.98;1.17;;;28.40;67.90;;;;;;5075749;28;20038;-54
2022/08/29 11:06:18;;;;;;;4.72;1.30;;;28.40;64.60;;;;;;5074970;28;20273;-47
2022/08/29 11:09:32;;;;;;;2.85;1.15;;;27.60;66.10;;;;;;5073073;28;20024;-47
2022/08/29 11:12:03;;;;;;;2.97;1.70;;;26.90;68.20;;;;;;5030631;28;20404;-48
2022/08/29 11:14:44;;;;;;;6.13;1.67;;;27.50;72.50;;;;;;5063782;28;20056;-47
2022/08/29 11:17:14;;;;;;;3.67;1.70;;;27.00;72.60;;;;;;5071708;28;20017;-46
2022/08/29 11:20:08;;;;;;;4.80;1.75;;;26.30;73.40;;;;;;5071563;28;20363;-47
2022/08/29 11:22:44;;;;;;;4.63;2.17;;;25.60;75.50;;;;;;5075235;28;20086;-48
2022/08/29 11:25:16;;;;;;;4.03;2.10;;;26.40;79.30;;;;;;5069971;28;20548;-56
2022/08/29 11:28:07;;;;;;;5.55;2.15;;;26.80;73.50;;;;;;5067348;28;20063;-51
2022/08/29 11:30:52;;;;;;;3.38;1.75;;;26.80;71.80;;;;;;5068764;28;20032;-51
2022/08/29 11:33:38;;;;;;;6.20;2.13;;;26.70;71.60;;;;;;5073495;28;20024;-51
2022/08/29 11:36:24;;;;;;;4.40;1.75;;;26.10;69.60;;;;;;5072789;28;20024;-48
2022/08/29 11:39:11;;;;;;;5.72;1.90;;;25.60;72.60;;;;;;5071351;28;20063;-50
2022/08/29 11:41:49;;;;;;;3.47;1.55;;;25.00;73.50;;;;;;5068938;28;20027;-52
2022/08/29 11:44:39;;;;;;;4.45;1.92;;;24.80;77.00;;;;;;5069250;28;20044;-48
2022/08/29 11:47:32;;;;;;;3.10;1.50;;;25.10;73.40;;;;;;5054291;28;20384;-52
2022/08/29 11:50:16;;;;;;;4.70;1.70;;;25.40;75.00;;;;;;5061717;28;20094;-54
2022/08/29 11:53:21;;;;;;;3.33;1.40;;;25.80;72.10;;;;;;5063238;28;20021;-51
2022/08/29 11:56:12;;;;;;;2.92;1.40;;;26.10;70.20;;;;;;5056988;28;20060;-48
2022/08/29 11:58:44;;;;;;;5.15;1.70;;;26.50;69.90;;;;;;5054888;28;20499;-47
2022/08/29 12:01:33;;;;;;;2.13;1.23;;;26.60;68.20;;;;;;5068358;28;20028;-51
2022/08/29 12:04:00;;;;;;;5.38;1.48;;;26.40;69.10;;;;;;5046284;28;20048;-48
2022/08/29 12:06:41;;;;;;;3.47;1.58;;;26.80;68.30;;;;;;5067972;28;20020;-47
2022/08/29 12:09:31;;;;;;;5.68;1.88;;;26.40;68.60;;;;;;5064706;28;20024;-50
2022/08/29 12:12:03;;;;;;;3.97;1.45;;;26.30;69.90;;;;;;5069148;28;20020;-53
2022/08/29 12:14:39;;;;;;;4.15;1.67;;;26.60;67.90;;;;;;5070838;28;20021;-49
2022/08/29 12:17:15;;;;;;;3.03;1.45;;;26.40;69.90;;;;;;5070321;28;20487;-52
2022/08/29 12:19:50;;;;;;;4.05;1.40;;;26.40;69.30;;;;;;5067580;28;20017;-48
2022/08/29 12:22:44;;;;;;;3.28;1.52;;;27.00;74.80;;;;;;5069482;28;20020;-50
2022/08/29 12:25:47;;;;;;;2.97;1.60;;;27.50;69.60;;;;;;5070155;28;20040;-50
2022/08/29 12:28:19;;;;;;;4.95;1.98;;;27.10;64.90;;;;;;5071654;28;20085;-48
2022/08/29 12:30:49;;;;;;;5.32;1.80;;;26.60;67.80;;;;;;5072123;28;20541;-49
2022/08/29 12:33:24;;;;;;;4.65;1.67;;;26.50;66.40;;;;;;5072047;28;20032;-50
2022/08/29 12:35:53;;;;;;;4.13;1.67;;;26.40;68.20;;;;;;5072071;28;20444;-48
2022/08/29 12:38:48;;;;;;;5.53;2.03;;;26.20;67.70;;;;;;5068807;28;20020;-47
2022/08/29 12:41:20;;;;;;;5.60;1.50;;;26.70;70.10;;;;;;5069491;28;20028;-54
2022/08/29 12:43:46;;;;;;;5.13;1.77;;;26.30;67.80;;;;;;5072461;28;20041;-48
2022/08/29 12:46:31;;;;;;;6.63;1.70;;;26.10;67.60;;;;;;5069472;28;20048;-50
2022/08/29 12:49:28;;;;;;;4.97;1.65;;;25.50;68.20;;;;;;5068387;28;20025;-48
2022/08/29 12:52:04;;;;;;;3.92;1.58;;;25.50;71.30;;;;;;5068279;28;20040;-48
2022/08/29 12:54:33;;;;;;;5.13;2.03;;;25.80;71.80;;;;;;5072374;28;20020;-47
2022/08/29 12:57:00;;;;;;;3.33;1.73;;;25.90;71.80;;;;;;5065984;28;20016;-51
2022/08/29 12:59:26;;;;;;;3.70;1.70;;;26.00;70.50;;;;;;5071022;28;20111;-50
2022/08/29 13:01:54;;;;;;;4.10;1.65;;;26.00;71.20;;;;;;5071274;28;20103;-49
2022/08/29 13:04:23;;;;;;;4.10;2.05;;;25.90;69.40;;;;;;5066864;28;20036;-48
2022/08/29 13:07:05;;;;;;;3.60;2.03;;;25.50;72.20;;;;;;5071742;28;20380;-47
2022/08/29 13:09:43;;;;;;;5.63;2.05;;;25.80;71.00;;;;;;5067472;28;20482;-50
2022/08/29 13:12:12;;;;;;;5.23;1.93;;;25.50;68.20;;;;;;5071434;28;20024;-48